sensor_id;sensor_type;location;lat;lon;timestamp;P1;durP1;ratioP1;P2;durP2;ratioP2
14139;SDS011;7150;53.514;9.988;2023-05-10T00:01:30;5.07;;;2.43;;
14139;SDS011;7150;53.514;9.988;2023-05-10T00:03:55;2.47;;;2.20;;
14139;SDS011;7150;53.514;9.988;2023-05-10T00:06:21;4.97;;;2.67;;
14139;SDS011;7150;53.514;9.988;2023-05-10T00:08:46;3.03;;;2.37;;
14139;SDS011;7150;53.514;9.988;2023-05-10T00:11:12;3.27;;;2.40;;
14139;SDS011;7150;53.514;9.988;2023-05-10T00:13:37;2.73;;;2.30;;
14139;SDS011;7150;53.514;9.988;2023-05-10T00:16:03;2.80;;;2.50;;
14139;SDS011;7150;53.514;9.988;2023-05-10T00:18:29;5.07;;;2.73;;
14139;SDS011;7150;53.514;9.988;2023-05-10T00:20:54;4.57;;;2.47;;
14139;SDS011;7150;53.514;9.988;2023-05-10T00:23:19;3.20;;;2.20;;
14139;SDS011;7150;53.514;9.988;2023-05-10T00:25:45;4.43;;;2.57;;
14139;SDS011;7150;53.514;9.988;2023-05-10T00:28:10;3.50;;;2.83;;
14139;SDS011;7150;53.514;9.988;2023-05-10T00:30:36;4.80;;;2.30;;
14139;SDS011;7150;53.514;9.988;2023-05-10T00:33:01;4.00;;;2.43;;
14139;SDS011;7150;53.514;9.988;2023-05-10T00:35:27;3.87;;;2.83;;
14139;SDS011;7150;53.514;9.988;2023-05-10T00:37:53;4.20;;;2.57;;
14139;SDS011;7150;53.514;9.988;2023-05-10T00:40:18;4.70;;;2.40;;
14139;SDS011;7150;53.514;9.988;2023-05-10T00:42:44;3.60;;;2.47;;
14139;SDS011;7150;53.514;9.988;2023-05-10T00:45:09;3.10;;;2.40;;
14139;SDS011;7150;53.514;9.988;2023-05-10T00:47:36;4.07;;;2.93;;
14139;SDS011;7150;53.514;9.988;2023-05-10T00:50:02;4.37;;;2.80;;
14139;SDS011;7150;53.514;9.988;2023-05-10T00:52:28;3.43;;;2.50;;
14139;SDS011;7150;53.514;9.988;2023-05-10T00:54:55;3.47;;;2.63;;
14139;SDS011;7150;53.514;9.988;2023-05-10T00:57:21;5.10;;;3.00;;
14139;SDS011;7150;53.514;9.988;2023-05-10T00:59:47;4.50;;;2.90;;
14139;SDS011;7150;53.514;9.988;2023-05-10T01:02:13;3.57;;;2.90;;
14139;SDS011;7150;53.514;9.988;2023-05-10T01:04:38;4.67;;;2.70;;
14139;SDS011;7150;53.514;9.988;2023-05-10T01:07:04;3.00;;;2.70;;
14139;SDS011;7150;53.514;9.988;2023-05-10T01:09:30;4.60;;;2.97;;
14139;SDS011;7150;53.514;9.988;2023-05-10T01:11:56;3.90;;;3.07;;
14139;SDS011;7150;53.514;9.988;2023-05-10T01:14:22;6.73;;;2.70;;
14139;SDS011;7150;53.514;9.988;2023-05-10T01:16:49;3.73;;;2.53;;
14139;SDS011;7150;53.514;9.988;2023-05-10T01:19:36;8.53;;;2.80;;
14139;SDS011;7150;53.514;9.988;2023-05-10T01:36:31;3.27;;;2.67;;
14139;SDS011;7150;53.514;9.988;2023-05-10T01:41:46;4.77;;;3.10;;
14139;SDS011;7150;53.514;9.988;2023-05-10T01:44:18;4.07;;;2.93;;
14139;SDS011;7150;53.514;9.988;2023-05-10T01:46:47;4.03;;;2.53;;
14139;SDS011;7150;53.514;9.988;2023-05-10T01:49:25;5.37;;;2.90;;
14139;SDS011;7150;53.514;9.988;2023-05-10T01:51:58;6.17;;;3.00;;
14139;SDS011;7150;53.514;9.988;2023-05-10T01:54:28;4.23;;;2.93;;
14139;SDS011;7150;53.514;9.988;2023-05-10T01:56:59;6.50;;;3.20;;
14139;SDS011;7150;53.514;9.988;2023-05-10T01:59:29;3.40;;;2.57;;
14139;SDS011;7150;53.514;9.988;2023-05-10T02:01:58;4.67;;;2.53;;
14139;SDS011;7150;53.514;9.988;2023-05-10T02:04:26;5.33;;;3.10;;
14139;SDS011;7150;53.514;9.988;2023-05-10T02:06:52;3.53;;;2.80;;
14139;SDS011;7150;53.514;9.988;2023-05-10T02:09:20;3.00;;;2.67;;
14139;SDS011;7150;53.514;9.988;2023-05-10T02:11:46;4.70;;;3.20;;
14139;SDS011;7150;53.514;9.988;2023-05-10T02:14:13;3.73;;;2.80;;
14139;SDS011;7150;53.514;9.988;2023-05-10T02:16:41;4.63;;;3.20;;
14139;SDS011;7150;53.514;9.988;2023-05-10T02:19:07;6.50;;;3.27;;
14139;SDS011;7150;53.514;9.988;2023-05-10T02:21:36;5.03;;;2.97;;
14139;SDS011;7150;53.514;9.988;2023-05-10T02:24:03;4.73;;;3.30;;
14139;SDS011;7150;53.514;9.988;2023-05-10T02:26:30;4.17;;;3.00;;
14139;SDS011;7150;53.514;9.988;2023-05-10T02:28:58;6.47;;;2.50;;
14139;SDS011;7150;53.514;9.988;2023-05-10T02:31:26;3.73;;;2.73;;
14139;SDS011;7150;53.514;9.988;2023-05-10T02:33:51;4.97;;;3.40;;
14139;SDS011;7150;53.514;9.988;2023-05-10T02:36:18;5.57;;;3.07;;
14139;SDS011;7150;53.514;9.988;2023-05-10T02:38:45;4.50;;;3.30;;
14139;SDS011;7150;53.514;9.988;2023-05-10T02:41:13;3.97;;;3.07;;
14139;SDS011;7150;53.514;9.988;2023-05-10T02:43:39;3.30;;;2.80;;
14139;SDS011;7150;53.514;9.988;2023-05-10T02:46:05;3.83;;;2.90;;
14139;SDS011;7150;53.514;9.988;2023-05-10T02:48:31;5.80;;;2.90;;
14139;SDS011;7150;53.514;9.988;2023-05-10T02:50:59;6.37;;;3.40;;
14139;SDS011;7150;53.514;9.988;2023-05-10T02:53:33;8.23;;;2.80;;
14139;SDS011;7150;53.514;9.988;2023-05-10T02:56:01;5.87;;;3.47;;
14139;SDS011;7150;53.514;9.988;2023-05-10T02:58:32;4.30;;;2.50;;
14139;SDS011;7150;53.514;9.988;2023-05-10T03:00:58;4.33;;;2.70;;
14139;SDS011;7150;53.514;9.988;2023-05-10T03:03:24;5.27;;;3.27;;
14139;SDS011;7150;53.514;9.988;2023-05-10T03:05:50;6.23;;;3.07;;
14139;SDS011;7150;53.514;9.988;2023-05-10T03:08:15;8.30;;;3.20;;
14139;SDS011;7150;53.514;9.988;2023-05-10T03:10:44;3.40;;;3.00;;
14139;SDS011;7150;53.514;9.988;2023-05-10T03:13:25;4.93;;;2.90;;
14139;SDS011;7150;53.514;9.988;2023-05-10T03:16:07;5.17;;;2.60;;
14139;SDS011;7150;53.514;9.988;2023-05-10T03:18:40;4.23;;;2.87;;
14139;SDS011;7150;53.514;9.988;2023-05-10T03:21:17;3.77;;;3.30;;
14139;SDS011;7150;53.514;9.988;2023-05-10T03:23:54;4.07;;;2.90;;
14139;SDS011;7150;53.514;9.988;2023-05-10T03:26:27;3.87;;;2.73;;
14139;SDS011;7150;53.514;9.988;2023-05-10T03:28:54;4.13;;;3.33;;
14139;SDS011;7150;53.514;9.988;2023-05-10T03:31:20;4.27;;;3.17;;
14139;SDS011;7150;53.514;9.988;2023-05-10T03:33:47;4.57;;;3.13;;
14139;SDS011;7150;53.514;9.988;2023-05-10T03:36:16;4.00;;;2.90;;
14139;SDS011;7150;53.514;9.988;2023-05-10T03:38:42;4.53;;;2.90;;
14139;SDS011;7150;53.514;9.988;2023-05-10T03:41:07;3.37;;;2.80;;
14139;SDS011;7150;53.514;9.988;2023-05-10T03:43:33;6.40;;;3.50;;
14139;SDS011;7150;53.514;9.988;2023-05-10T03:46:01;5.90;;;3.20;;
14139;SDS011;7150;53.514;9.988;2023-05-10T03:48:27;5.93;;;3.00;;
14139;SDS011;7150;53.514;9.988;2023-05-10T03:50:53;4.97;;;2.70;;
14139;SDS011;7150;53.514;9.988;2023-05-10T03:53:18;4.13;;;3.20;;
14139;SDS011;7150;53.514;9.988;2023-05-10T03:55:44;3.47;;;2.40;;
14139;SDS011;7150;53.514;9.988;2023-05-10T03:58:12;4.70;;;3.20;;
14139;SDS011;7150;53.514;9.988;2023-05-10T04:00:38;4.60;;;3.03;;
14139;SDS011;7150;53.514;9.988;2023-05-10T04:03:08;3.70;;;2.90;;
14139;SDS011;7150;53.514;9.988;2023-05-10T04:05:34;7.10;;;3.40;;
14139;SDS011;7150;53.514;9.988;2023-05-10T04:08:00;4.53;;;3.23;;
14139;SDS011;7150;53.514;9.988;2023-05-10T04:10:26;4.93;;;2.97;;
14139;SDS011;7150;53.514;9.988;2023-05-10T04:12:52;4.27;;;2.90;;
14139;SDS011;7150;53.514;9.988;2023-05-10T04:15:17;3.77;;;3.37;;
14139;SDS011;7150;53.514;9.988;2023-05-10T04:17:43;3.17;;;2.73;;
14139;SDS011;7150;53.514;9.988;2023-05-10T04:20:08;3.73;;;2.60;;
14139;SDS011;7150;53.514;9.988;2023-05-10T04:22:34;9.00;;;3.27;;
14139;SDS011;7150;53.514;9.988;2023-05-10T04:25:00;3.93;;;2.90;;
14139;SDS011;7150;53.514;9.988;2023-05-10T04:27:25;3.77;;;3.07;;
14139;SDS011;7150;53.514;9.988;2023-05-10T04:29:51;4.33;;;2.90;;
14139;SDS011;7150;53.514;9.988;2023-05-10T04:32:16;4.73;;;3.20;;
14139;SDS011;7150;53.514;9.988;2023-05-10T04:34:42;5.13;;;3.33;;
14139;SDS011;7150;53.514;9.988;2023-05-10T04:37:08;3.20;;;2.83;;
14139;SDS011;7150;53.514;9.988;2023-05-10T04:39:34;5.93;;;3.43;;
14139;SDS011;7150;53.514;9.988;2023-05-10T04:42:00;4.30;;;3.60;;
14139;SDS011;7150;53.514;9.988;2023-05-10T04:44:27;4.33;;;3.43;;
14139;SDS011;7150;53.514;9.988;2023-05-10T04:46:53;4.97;;;3.03;;
14139;SDS011;7150;53.514;9.988;2023-05-10T04:49:18;3.73;;;3.00;;
14139;SDS011;7150;53.514;9.988;2023-05-10T04:51:44;5.70;;;3.37;;
14139;SDS011;7150;53.514;9.988;2023-05-10T04:54:10;4.20;;;3.40;;
14139;SDS011;7150;53.514;9.988;2023-05-10T04:56:35;5.10;;;3.47;;
14139;SDS011;7150;53.514;9.988;2023-05-10T04:59:01;3.93;;;2.83;;
14139;SDS011;7150;53.514;9.988;2023-05-10T05:01:26;4.83;;;3.57;;
14139;SDS011;7150;53.514;9.988;2023-05-10T05:03:52;3.93;;;3.00;;
14139;SDS011;7150;53.514;9.988;2023-05-10T05:06:17;4.80;;;3.40;;
14139;SDS011;7150;53.514;9.988;2023-05-10T05:08:43;3.30;;;3.00;;
14139;SDS011;7150;53.514;9.988;2023-05-10T05:11:08;4.13;;;2.90;;
14139;SDS011;7150;53.514;9.988;2023-05-10T05:13:34;3.60;;;2.97;;
14139;SDS011;7150;53.514;9.988;2023-05-10T05:16:00;8.17;;;2.60;;
14139;SDS011;7150;53.514;9.988;2023-05-10T05:18:27;5.73;;;3.03;;
14139;SDS011;7150;53.514;9.988;2023-05-10T05:20:53;3.93;;;3.20;;
14139;SDS011;7150;53.514;9.988;2023-05-10T05:23:18;5.40;;;3.10;;
14139;SDS011;7150;53.514;9.988;2023-05-10T05:25:45;5.87;;;2.80;;
14139;SDS011;7150;53.514;9.988;2023-05-10T05:28:11;3.67;;;3.20;;
14139;SDS011;7150;53.514;9.988;2023-05-10T05:30:37;3.83;;;3.13;;
14139;SDS011;7150;53.514;9.988;2023-05-10T05:33:02;3.97;;;2.80;;
14139;SDS011;7150;53.514;9.988;2023-05-10T05:35:28;4.37;;;3.00;;
14139;SDS011;7150;53.514;9.988;2023-05-10T05:37:53;4.37;;;2.80;;
14139;SDS011;7150;53.514;9.988;2023-05-10T05:40:19;5.27;;;2.97;;
14139;SDS011;7150;53.514;9.988;2023-05-10T05:42:45;4.50;;;3.57;;
14139;SDS011;7150;53.514;9.988;2023-05-10T05:45:11;4.90;;;3.13;;
14139;SDS011;7150;53.514;9.988;2023-05-10T05:47:38;3.33;;;3.03;;
14139;SDS011;7150;53.514;9.988;2023-05-10T05:50:04;4.20;;;3.10;;
14139;SDS011;7150;53.514;9.988;2023-05-10T05:52:30;5.53;;;3.50;;
14139;SDS011;7150;53.514;9.988;2023-05-10T05:54:56;4.50;;;3.00;;
14139;SDS011;7150;53.514;9.988;2023-05-10T05:57:21;4.47;;;3.43;;
14139;SDS011;7150;53.514;9.988;2023-05-10T05:59:47;4.30;;;3.33;;
14139;SDS011;7150;53.514;9.988;2023-05-10T06:02:13;7.00;;;3.30;;
14139;SDS011;7150;53.514;9.988;2023-05-10T06:04:38;5.17;;;3.20;;
14139;SDS011;7150;53.514;9.988;2023-05-10T06:07:04;4.77;;;3.00;;
14139;SDS011;7150;53.514;9.988;2023-05-10T06:09:29;4.97;;;3.17;;
14139;SDS011;7150;53.514;9.988;2023-05-10T06:11:55;4.43;;;2.90;;
14139;SDS011;7150;53.514;9.988;2023-05-10T06:14:21;5.37;;;3.70;;
14139;SDS011;7150;53.514;9.988;2023-05-10T06:16:46;5.10;;;3.33;;
14139;SDS011;7150;53.514;9.988;2023-05-10T06:19:12;4.43;;;3.07;;
14139;SDS011;7150;53.514;9.988;2023-05-10T06:21:37;5.37;;;3.27;;
14139;SDS011;7150;53.514;9.988;2023-05-10T06:24:03;4.93;;;3.43;;
14139;SDS011;7150;53.514;9.988;2023-05-10T06:26:30;5.70;;;3.00;;
14139;SDS011;7150;53.514;9.988;2023-05-10T06:28:55;3.23;;;2.87;;
14139;SDS011;7150;53.514;9.988;2023-05-10T06:31:21;6.27;;;2.87;;
14139;SDS011;7150;53.514;9.988;2023-05-10T06:33:46;5.03;;;3.10;;
14139;SDS011;7150;53.514;9.988;2023-05-10T06:36:12;5.17;;;3.00;;
14139;SDS011;7150;53.514;9.988;2023-05-10T06:38:38;6.63;;;3.57;;
14139;SDS011;7150;53.514;9.988;2023-05-10T06:41:03;4.67;;;3.20;;
14139;SDS011;7150;53.514;9.988;2023-05-10T06:43:29;3.70;;;3.27;;
14139;SDS011;7150;53.514;9.988;2023-05-10T06:45:54;7.23;;;3.80;;
14139;SDS011;7150;53.514;9.988;2023-05-10T06:48:20;4.07;;;3.30;;
14139;SDS011;7150;53.514;9.988;2023-05-10T06:50:46;5.90;;;3.23;;
14139;SDS011;7150;53.514;9.988;2023-05-10T06:53:11;3.83;;;3.10;;
14139;SDS011;7150;53.514;9.988;2023-05-10T06:55:38;6.97;;;3.63;;
14139;SDS011;7150;53.514;9.988;2023-05-10T06:58:03;4.77;;;3.57;;
14139;SDS011;7150;53.514;9.988;2023-05-10T07:00:29;3.97;;;3.10;;
14139;SDS011;7150;53.514;9.988;2023-05-10T07:02:55;5.33;;;3.30;;
14139;SDS011;7150;53.514;9.988;2023-05-10T07:05:20;5.33;;;3.40;;
14139;SDS011;7150;53.514;9.988;2023-05-10T07:07:46;3.97;;;2.93;;
14139;SDS011;7150;53.514;9.988;2023-05-10T07:10:12;4.43;;;3.03;;
14139;SDS011;7150;53.514;9.988;2023-05-10T07:12:38;3.27;;;2.63;;
14139;SDS011;7150;53.514;9.988;2023-05-10T07:15:04;6.63;;;3.37;;
14139;SDS011;7150;53.514;9.988;2023-05-10T07:17:29;3.90;;;3.13;;
14139;SDS011;7150;53.514;9.988;2023-05-10T07:19:55;3.70;;;2.70;;
14139;SDS011;7150;53.514;9.988;2023-05-10T07:22:20;4.07;;;2.70;;
14139;SDS011;7150;53.514;9.988;2023-05-10T07:24:46;4.27;;;2.80;;
14139;SDS011;7150;53.514;9.988;2023-05-10T07:27:11;4.80;;;2.93;;
14139;SDS011;7150;53.514;9.988;2023-05-10T07:29:37;4.97;;;3.30;;
14139;SDS011;7150;53.514;9.988;2023-05-10T07:32:03;3.90;;;2.80;;
14139;SDS011;7150;53.514;9.988;2023-05-10T07:34:29;5.70;;;3.00;;
14139;SDS011;7150;53.514;9.988;2023-05-10T07:36:56;3.83;;;2.70;;
14139;SDS011;7150;53.514;9.988;2023-05-10T07:39:23;6.53;;;3.07;;
14139;SDS011;7150;53.514;9.988;2023-05-10T07:41:48;4.37;;;3.17;;
14139;SDS011;7150;53.514;9.988;2023-05-10T07:44:14;3.83;;;3.07;;
14139;SDS011;7150;53.514;9.988;2023-05-10T07:46:40;4.70;;;3.33;;
14139;SDS011;7150;53.514;9.988;2023-05-10T07:49:05;9.63;;;3.43;;
14139;SDS011;7150;53.514;9.988;2023-05-10T07:51:31;3.30;;;2.43;;
14139;SDS011;7150;53.514;9.988;2023-05-10T07:53:56;3.90;;;2.90;;
14139;SDS011;7150;53.514;9.988;2023-05-10T07:56:24;4.37;;;3.17;;
14139;SDS011;7150;53.514;9.988;2023-05-10T07:58:56;5.67;;;3.30;;
14139;SDS011;7150;53.514;9.988;2023-05-10T08:01:26;5.87;;;2.80;;
14139;SDS011;7150;53.514;9.988;2023-05-10T08:03:56;5.77;;;3.47;;
14139;SDS011;7150;53.514;9.988;2023-05-10T08:06:21;3.30;;;2.70;;
14139;SDS011;7150;53.514;9.988;2023-05-10T08:08:47;3.03;;;2.70;;
14139;SDS011;7150;53.514;9.988;2023-05-10T08:11:18;4.60;;;3.20;;
14139;SDS011;7150;53.514;9.988;2023-05-10T08:13:48;4.07;;;3.07;;
14139;SDS011;7150;53.514;9.988;2023-05-10T08:16:14;3.33;;;2.80;;
14139;SDS011;7150;53.514;9.988;2023-05-10T08:18:40;5.47;;;3.17;;
14139;SDS011;7150;53.514;9.988;2023-05-10T08:21:06;3.57;;;2.60;;
14139;SDS011;7150;53.514;9.988;2023-05-10T08:23:32;3.97;;;2.97;;
14139;SDS011;7150;53.514;9.988;2023-05-10T08:25:58;4.70;;;3.33;;
14139;SDS011;7150;53.514;9.988;2023-05-10T08:28:24;4.20;;;2.90;;
14139;SDS011;7150;53.514;9.988;2023-05-10T08:30:50;3.43;;;2.97;;
14139;SDS011;7150;53.514;9.988;2023-05-10T08:33:17;3.00;;;2.67;;
14139;SDS011;7150;53.514;9.988;2023-05-10T08:35:43;6.33;;;3.03;;
14139;SDS011;7150;53.514;9.988;2023-05-10T08:38:08;4.80;;;2.97;;
14139;SDS011;7150;53.514;9.988;2023-05-10T08:40:34;7.20;;;3.00;;
14139;SDS011;7150;53.514;9.988;2023-05-10T08:43:05;4.23;;;3.43;;
14139;SDS011;7150;53.514;9.988;2023-05-10T08:45:36;3.50;;;3.20;;
14139;SDS011;7150;53.514;9.988;2023-05-10T08:48:04;5.13;;;2.90;;
14139;SDS011;7150;53.514;9.988;2023-05-10T08:50:31;2.93;;;2.53;;
14139;SDS011;7150;53.514;9.988;2023-05-10T08:52:59;3.47;;;2.73;;
14139;SDS011;7150;53.514;9.988;2023-05-10T08:55:26;3.30;;;2.83;;
14139;SDS011;7150;53.514;9.988;2023-05-10T08:57:53;4.97;;;3.30;;
14139;SDS011;7150;53.514;9.988;2023-05-10T09:00:19;5.33;;;2.93;;
14139;SDS011;7150;53.514;9.988;2023-05-10T09:02:45;6.10;;;3.33;;
14139;SDS011;7150;53.514;9.988;2023-05-10T09:05:12;6.03;;;2.87;;
14139;SDS011;7150;53.514;9.988;2023-05-10T09:07:37;4.47;;;3.07;;
14139;SDS011;7150;53.514;9.988;2023-05-10T09:10:04;5.57;;;3.57;;
14139;SDS011;7150;53.514;9.988;2023-05-10T09:12:30;8.43;;;4.00;;
14139;SDS011;7150;53.514;9.988;2023-05-10T09:14:56;4.37;;;3.53;;
14139;SDS011;7150;53.514;9.988;2023-05-10T09:17:24;5.03;;;3.67;;
14139;SDS011;7150;53.514;9.988;2023-05-10T09:19:56;4.57;;;3.70;;
14139;SDS011;7150;53.514;9.988;2023-05-10T09:22:23;6.43;;;3.67;;
14139;SDS011;7150;53.514;9.988;2023-05-10T09:25:03;5.83;;;3.23;;
14139;SDS011;7150;53.514;9.988;2023-05-10T09:27:33;3.77;;;3.10;;
14139;SDS011;7150;53.514;9.988;2023-05-10T09:29:59;5.17;;;3.50;;
14139;SDS011;7150;53.514;9.988;2023-05-10T09:32:38;4.53;;;3.03;;
14139;SDS011;7150;53.514;9.988;2023-05-10T09:35:11;4.83;;;3.80;;
14139;SDS011;7150;53.514;9.988;2023-05-10T09:37:42;6.73;;;3.83;;
14139;SDS011;7150;53.514;9.988;2023-05-10T09:40:16;5.93;;;3.90;;
14139;SDS011;7150;53.514;9.988;2023-05-10T09:42:42;5.87;;;3.30;;
14139;SDS011;7150;53.514;9.988;2023-05-10T09:45:16;4.60;;;3.77;;
14139;SDS011;7150;53.514;9.988;2023-05-10T09:47:41;6.57;;;4.03;;
14139;SDS011;7150;53.514;9.988;2023-05-10T09:50:07;6.37;;;4.27;;
14139;SDS011;7150;53.514;9.988;2023-05-10T09:52:45;5.77;;;4.20;;
14139;SDS011;7150;53.514;9.988;2023-05-10T09:55:12;6.47;;;4.30;;
14139;SDS011;7150;53.514;9.988;2023-05-10T09:57:37;6.73;;;4.47;;
14139;SDS011;7150;53.514;9.988;2023-05-10T10:00:04;5.97;;;4.60;;
14139;SDS011;7150;53.514;9.988;2023-05-10T10:02:30;6.43;;;4.60;;
14139;SDS011;7150;53.514;9.988;2023-05-10T10:04:56;11.07;;;4.27;;
14139;SDS011;7150;53.514;9.988;2023-05-10T10:07:23;4.87;;;3.90;;
14139;SDS011;7150;53.514;9.988;2023-05-10T10:09:52;10.07;;;4.93;;
14139;SDS011;7150;53.514;9.988;2023-05-10T10:12:18;12.43;;;4.93;;
14139;SDS011;7150;53.514;9.988;2023-05-10T10:14:45;6.50;;;4.67;;
14139;SDS011;7150;53.514;9.988;2023-05-10T10:17:12;7.93;;;5.57;;
14139;SDS011;7150;53.514;9.988;2023-05-10T10:19:38;8.23;;;5.50;;
14139;SDS011;7150;53.514;9.988;2023-05-10T10:22:04;8.57;;;4.97;;
14139;SDS011;7150;53.514;9.988;2023-05-10T10:24:30;7.23;;;5.10;;
14139;SDS011;7150;53.514;9.988;2023-05-10T10:26:57;9.87;;;5.77;;
14139;SDS011;7150;53.514;9.988;2023-05-10T10:32:25;6.67;;;4.83;;
14139;SDS011;7150;53.514;9.988;2023-05-10T10:35:02;8.07;;;5.33;;
14139;SDS011;7150;53.514;9.988;2023-05-10T10:37:43;6.90;;;5.30;;
14139;SDS011;7150;53.514;9.988;2023-05-10T10:40:26;6.03;;;5.40;;
14139;SDS011;7150;53.514;9.988;2023-05-10T10:42:52;6.83;;;5.70;;
14139;SDS011;7150;53.514;9.988;2023-05-10T10:45:18;10.20;;;6.23;;
14139;SDS011;7150;53.514;9.988;2023-05-10T10:47:44;7.13;;;5.70;;
14139;SDS011;7150;53.514;9.988;2023-05-10T10:50:10;6.67;;;5.50;;
14139;SDS011;7150;53.514;9.988;2023-05-10T10:52:40;6.83;;;5.50;;
14139;SDS011;7150;53.514;9.988;2023-05-10T10:55:13;9.90;;;5.27;;
14139;SDS011;7150;53.514;9.988;2023-05-10T11:02:45;8.63;;;5.63;;
14139;SDS011;7150;53.514;9.988;2023-05-10T11:08:00;8.97;;;6.30;;
14139;SDS011;7150;53.514;9.988;2023-05-10T11:13:45;6.53;;;5.83;;
14139;SDS011;7150;53.514;9.988;2023-05-10T11:18:51;8.00;;;6.10;;
14139;SDS011;7150;53.514;9.988;2023-05-10T11:21:18;7.37;;;5.90;;
14139;SDS011;7150;53.514;9.988;2023-05-10T11:26:10;8.37;;;6.83;;
14139;SDS011;7150;53.514;9.988;2023-05-10T11:28:43;6.23;;;5.37;;
14139;SDS011;7150;53.514;9.988;2023-05-10T11:31:10;7.13;;;6.23;;
14139;SDS011;7150;53.514;9.988;2023-05-10T11:33:44;7.70;;;5.83;;
14139;SDS011;7150;53.514;9.988;2023-05-10T11:36:19;9.23;;;6.30;;
14139;SDS011;7150;53.514;9.988;2023-05-10T11:38:52;6.63;;;5.60;;
14139;SDS011;7150;53.514;9.988;2023-05-10T11:41:19;10.20;;;6.73;;
14139;SDS011;7150;53.514;9.988;2023-05-10T11:43:51;9.43;;;6.47;;
14139;SDS011;7150;53.514;9.988;2023-05-10T11:46:19;8.67;;;7.20;;
14139;SDS011;7150;53.514;9.988;2023-05-10T11:48:46;8.00;;;6.83;;
14139;SDS011;7150;53.514;9.988;2023-05-10T11:51:15;9.00;;;7.13;;
14139;SDS011;7150;53.514;9.988;2023-05-10T11:53:44;11.07;;;6.93;;
14139;SDS011;7150;53.514;9.988;2023-05-10T11:56:10;10.07;;;6.67;;
14139;SDS011;7150;53.514;9.988;2023-05-10T11:58:36;12.33;;;7.33;;
14139;SDS011;7150;53.514;9.988;2023-05-10T12:01:03;8.47;;;7.03;;
14139;SDS011;7150;53.514;9.988;2023-05-10T12:03:30;7.90;;;5.83;;
14139;SDS011;7150;53.514;9.988;2023-05-10T12:05:56;9.30;;;6.53;;
14139;SDS011;7150;53.514;9.988;2023-05-10T12:08:23;11.07;;;6.87;;
14139;SDS011;7150;53.514;9.988;2023-05-10T12:10:50;10.23;;;7.40;;
14139;SDS011;7150;53.514;9.988;2023-05-10T12:13:16;12.30;;;7.03;;
14139;SDS011;7150;53.514;9.988;2023-05-10T12:15:42;8.93;;;7.13;;
14139;SDS011;7150;53.514;9.988;2023-05-10T12:18:12;9.77;;;6.10;;
14139;SDS011;7150;53.514;9.988;2023-05-10T12:20:38;9.77;;;7.20;;
14139;SDS011;7150;53.514;9.988;2023-05-10T12:23:04;9.43;;;6.87;;
14139;SDS011;7150;53.514;9.988;2023-05-10T12:25:31;9.83;;;6.80;;
14139;SDS011;7150;53.514;9.988;2023-05-10T12:28:02;8.27;;;6.53;;
14139;SDS011;7150;53.514;9.988;2023-05-10T12:30:30;9.33;;;6.83;;
14139;SDS011;7150;53.514;9.988;2023-05-10T12:33:00;9.50;;;6.40;;
14139;SDS011;7150;53.514;9.988;2023-05-10T12:35:43;8.37;;;6.60;;
14139;SDS011;7150;53.514;9.988;2023-05-10T12:38:31;7.10;;;5.83;;
14139;SDS011;7150;53.514;9.988;2023-05-10T12:40:59;6.80;;;5.60;;
14139;SDS011;7150;53.514;9.988;2023-05-10T12:43:26;5.10;;;4.37;;
14139;SDS011;7150;53.514;9.988;2023-05-10T12:45:52;6.20;;;4.10;;
14139;SDS011;7150;53.514;9.988;2023-05-10T12:48:17;6.27;;;5.23;;
14139;SDS011;7150;53.514;9.988;2023-05-10T12:50:43;6.73;;;5.37;;
14139;SDS011;7150;53.514;9.988;2023-05-10T12:53:09;8.33;;;5.43;;
14139;SDS011;7150;53.514;9.988;2023-05-10T12:55:34;6.40;;;4.97;;
14139;SDS011;7150;53.514;9.988;2023-05-10T12:58:00;6.20;;;5.03;;
14139;SDS011;7150;53.514;9.988;2023-05-10T13:00:25;6.83;;;5.33;;
14139;SDS011;7150;53.514;9.988;2023-05-10T13:02:51;5.87;;;4.60;;
14139;SDS011;7150;53.514;9.988;2023-05-10T13:05:17;5.70;;;5.00;;
14139;SDS011;7150;53.514;9.988;2023-05-10T13:07:42;5.60;;;4.13;;
14139;SDS011;7150;53.514;9.988;2023-05-10T13:10:08;6.33;;;4.93;;
14139;SDS011;7150;53.514;9.988;2023-05-10T13:12:34;7.33;;;5.47;;
14139;SDS011;7150;53.514;9.988;2023-05-10T13:15:00;5.47;;;4.87;;
14139;SDS011;7150;53.514;9.988;2023-05-10T13:17:26;6.90;;;5.37;;
14139;SDS011;7150;53.514;9.988;2023-05-10T13:19:51;5.80;;;4.67;;
14139;SDS011;7150;53.514;9.988;2023-05-10T13:22:17;6.10;;;5.00;;
14139;SDS011;7150;53.514;9.988;2023-05-10T13:24:42;4.63;;;4.13;;
14139;SDS011;7150;53.514;9.988;2023-05-10T13:27:08;5.87;;;4.50;;
14139;SDS011;7150;53.514;9.988;2023-05-10T13:29:33;6.87;;;4.97;;
14139;SDS011;7150;53.514;9.988;2023-05-10T13:31:59;4.90;;;4.40;;
14139;SDS011;7150;53.514;9.988;2023-05-10T13:34:24;5.17;;;4.67;;
14139;SDS011;7150;53.514;9.988;2023-05-10T13:36:50;6.00;;;4.87;;
14139;SDS011;7150;53.514;9.988;2023-05-10T13:39:16;5.70;;;5.00;;
14139;SDS011;7150;53.514;9.988;2023-05-10T13:41:42;5.57;;;4.60;;
14139;SDS011;7150;53.514;9.988;2023-05-10T13:44:07;6.80;;;5.40;;
14139;SDS011;7150;53.514;9.988;2023-05-10T13:46:33;5.13;;;4.30;;
14139;SDS011;7150;53.514;9.988;2023-05-10T13:48:58;5.27;;;4.17;;
14139;SDS011;7150;53.514;9.988;2023-05-10T13:51:23;7.60;;;4.70;;
14139;SDS011;7150;53.514;9.988;2023-05-10T13:53:49;7.03;;;5.27;;
14139;SDS011;7150;53.514;9.988;2023-05-10T13:56:14;6.97;;;5.50;;
14139;SDS011;7150;53.514;9.988;2023-05-10T13:58:40;5.87;;;5.13;;
14139;SDS011;7150;53.514;9.988;2023-05-10T14:01:06;9.67;;;5.87;;
14139;SDS011;7150;53.514;9.988;2023-05-10T14:03:31;6.83;;;4.83;;
14139;SDS011;7150;53.514;9.988;2023-05-10T14:05:57;6.50;;;4.63;;
14139;SDS011;7150;53.514;9.988;2023-05-10T14:08:23;5.33;;;4.30;;
14139;SDS011;7150;53.514;9.988;2023-05-10T14:10:48;5.33;;;4.73;;
14139;SDS011;7150;53.514;9.988;2023-05-10T14:13:15;5.60;;;4.50;;
14139;SDS011;7150;53.514;9.988;2023-05-10T14:15:41;5.37;;;4.20;;
14139;SDS011;7150;53.514;9.988;2023-05-10T14:18:06;5.63;;;4.07;;
14139;SDS011;7150;53.514;9.988;2023-05-10T14:20:32;4.97;;;4.47;;
14139;SDS011;7150;53.514;9.988;2023-05-10T14:22:58;4.60;;;4.07;;
14139;SDS011;7150;53.514;9.988;2023-05-10T14:25:24;4.37;;;3.97;;
14139;SDS011;7150;53.514;9.988;2023-05-10T14:27:50;8.57;;;5.10;;
14139;SDS011;7150;53.514;9.988;2023-05-10T14:30:16;5.37;;;4.67;;
14139;SDS011;7150;53.514;9.988;2023-05-10T14:32:41;4.47;;;3.87;;
14139;SDS011;7150;53.514;9.988;2023-05-10T14:35:07;7.03;;;5.07;;
14139;SDS011;7150;53.514;9.988;2023-05-10T14:37:33;5.23;;;4.73;;
14139;SDS011;7150;53.514;9.988;2023-05-10T14:39:58;6.30;;;5.50;;
14139;SDS011;7150;53.514;9.988;2023-05-10T14:42:24;5.00;;;4.13;;
14139;SDS011;7150;53.514;9.988;2023-05-10T14:44:49;4.93;;;4.20;;
14139;SDS011;7150;53.514;9.988;2023-05-10T14:47:15;6.37;;;4.77;;
14139;SDS011;7150;53.514;9.988;2023-05-10T14:49:40;5.63;;;4.87;;
14139;SDS011;7150;53.514;9.988;2023-05-10T14:52:06;4.60;;;4.20;;
14139;SDS011;7150;53.514;9.988;2023-05-10T14:54:31;5.60;;;4.30;;
14139;SDS011;7150;53.514;9.988;2023-05-10T14:56:58;4.90;;;4.20;;
14139;SDS011;7150;53.514;9.988;2023-05-10T14:59:25;5.67;;;4.30;;
14139;SDS011;7150;53.514;9.988;2023-05-10T15:01:50;5.13;;;3.93;;
14139;SDS011;7150;53.514;9.988;2023-05-10T15:04:16;8.00;;;4.80;;
14139;SDS011;7150;53.514;9.988;2023-05-10T15:06:41;5.57;;;4.50;;
14139;SDS011;7150;53.514;9.988;2023-05-10T15:09:07;5.93;;;4.87;;
14139;SDS011;7150;53.514;9.988;2023-05-10T15:11:33;5.80;;;4.80;;
14139;SDS011;7150;53.514;9.988;2023-05-10T15:13:59;8.30;;;4.70;;
14139;SDS011;7150;53.514;9.988;2023-05-10T15:16:26;5.23;;;4.47;;
14139;SDS011;7150;53.514;9.988;2023-05-10T15:18:52;4.30;;;3.70;;
14139;SDS011;7150;53.514;9.988;2023-05-10T15:21:17;4.93;;;4.37;;
14139;SDS011;7150;53.514;9.988;2023-05-10T15:23:43;5.37;;;4.60;;
14139;SDS011;7150;53.514;9.988;2023-05-10T15:26:08;5.50;;;4.23;;
14139;SDS011;7150;53.514;9.988;2023-05-10T15:28:33;5.77;;;4.10;;
14139;SDS011;7150;53.514;9.988;2023-05-10T15:30:59;5.07;;;4.00;;
14139;SDS011;7150;53.514;9.988;2023-05-10T15:33:25;4.87;;;4.37;;
14139;SDS011;7150;53.514;9.988;2023-05-10T15:35:52;5.03;;;4.43;;